• Join FlightAware (Why Join?)
  • Login
  • US Flag 
01:16PM EDT


 

Airport Tracker/Info


-or-


 

Live Flight TrackerFlight Track Log ✈ KAP4761 ✈ 14-Jun-2013 ✈ TQPF / AXA - TJSJ / SJU

Flight Track Log - Related Links

Times and Time Zones

All times are in EDT time to prevent confusion due to time zone crossing. See the KAP4761 flight status page for this flight to view local times or setup timezone preferences in your user account.

Time Position Orientation Groundspeed Altitude Reporting Facility
EDT Latitude Longitude Course Direction KTS MPH feet Rate Location/Type
02:51PM 18.2000 -63.1500 270° West 150 173 3,400  Level San Juan Center
02:52PM 18.2000 -63.2000 270° West 160 184 4,000 540 Climbing San Juan Center
02:53PM 18.1833 -63.2500 251° West 160 184 4,600 600 Climbing San Juan Center
02:54PM 18.1833 -63.2833 270° West 170 196 5,200 600 Climbing San Juan Center
02:55PM 18.1667 -63.3333 251° West 160 184 5,800 540 Climbing San Juan Center
02:56PM 18.1500 -63.3833 251° West 170 196 6,300 480 Climbing San Juan Center
02:57PM 18.1500 -63.4333 270° West 170 196 6,800 480 Climbing San Juan Center
02:58PM 18.1500 -63.4833 270° West 170 196 7,300 420 Climbing San Juan Center
02:59PM 18.1333 -63.5333 251° West 180 207 7,700 480 Climbing San Juan Center
03:00PM 18.1333 -63.5833 270° West 180 207 8,300 120 Climbing San Juan Center
03:01PM 18.1167 -63.6500 255° West 200 230 8,000 -180 Descending San Juan Center
03:02PM 18.1333 -63.7000 289° West 210 242 8,000  Level San Juan Center
03:03PM 18.1333 -63.7667 270° West 210 242 8,000  Level San Juan Center
03:04PM 18.1500 -63.8167 289° West 200 230 8,000  Level San Juan Center
03:05PM 18.1500 -63.8833 270° West 210 242 8,000  Level San Juan Center
03:06PM 18.1667 -63.9500 285° West 210 242 8,000  Level San Juan Center
03:07PM 18.1833 -64.0000 289° West 210 242 8,000  Level San Juan Center
03:08PM 18.1833 -64.0667 270° West 200 230 8,000  Level San Juan Center
03:09PM 18.1833 -64.1167 270° West 200 230 8,000  Level San Juan Center
03:10PM 18.2000 -64.1833 285° West 200 230 8,000  Level San Juan Center
03:11PM 18.2000 -64.2333 270° West 210 242 8,000  Level San Juan Center
03:12PM 18.2167 -64.3000 285° West 210 242 8,000  Level San Juan Center
03:13PM 18.2167 -64.3667 270° West 200 230 8,000  Level San Juan Center
03:14PM 18.2333 -64.4167 289° West 200 230 8,000  Level San Juan Center
03:15PM 18.2333 -64.4833 270° West 200 230 8,000  Level San Juan Center
03:16PM 18.2500 -64.5333 289° West 210 242 8,000  Level San Juan Center
03:17PM 18.2500 -64.6000 270° West 210 242 8,000  Level San Juan Center
03:18PM 18.2667 -64.6667 285° West 200 230 8,000  Level San Juan Center
03:19PM 18.2667 -64.7167 270° West 210 242 8,000  Level San Juan Center
03:20PM 18.2833 -64.7833 285° West 210 242 8,000  Level San Juan Center
03:21PM 18.2833 -64.8500 270° West 210 242 8,000  Level San Juan Center
03:22PM 18.3000 -64.9000 289° West 200 230 8,000  Level San Juan Center
03:23PM 18.3000 -64.9667 270° West 220 253 8,000  Level San Juan Center
03:24PM 18.3000 -65.0333 270° West 230 265 8,000  Level San Juan Center
03:25PM 18.3167 -65.0833 289° West 210 242 8,000  Level San Juan Center
03:26PM 18.3167 -65.1500 270° West 210 242 8,000  Level San Juan Center
03:27PM 18.3333 -65.2000 289° West 200 230 8,000  Level San Juan Center
03:28PM 18.3333 -65.2667 270° West 210 242 8,000 -180 Level San Juan Center
03:29PM 18.3500 -65.3333 285° West 210 242 7,700 -480 Descending San Juan Center
03:30PM 18.3500 -65.4000 270° West 220 253 7,100 -600 Descending San Juan Center
03:31PM 18.3667 -65.4667 285° West 220 253 6,600 -600 Descending San Juan Center
03:32PM 18.3667 -65.5167 270° West 220 253 6,000 -300 Descending San Juan Center
03:33PM 18.3833 -65.5833 285° West 210 242 6,000  Level San Juan Center
03:34PM 18.3833 -65.6333 270° West 190 219 6,000  Level San Juan Center
03:35PM 18.3833 -65.7000 270° West 200 230 6,000  Level San Juan Center
03:36PM 18.3833 -65.7500 270° West 190 219 6,000  Level San Juan Center
03:37PM 18.3833 -65.8167 270° West 190 219 6,000  Level San Juan Center
03:39PM 18.4109 -65.8994 289° West  Level FlightAware Approximate
03:46PM 18.4333 -66.0000 270° West  Level FlightAware Approximate
03:47PM 18.4393 -66.0020 270° West  Level Estimated
03:48PM 18.4333 -66.0000 270° West  Level FlightAware Approximate
03:49PM 18.4393 -66.0020 270° West  Level Estimated
03:50PM 18.4333 -66.0000 270° West  Level FlightAware Approximate
03:51PM 18.4393 -66.0020 270° West  Level Estimated
03:52PM 18.4333 -66.0000 270° West  Level FlightAware Approximate
03:53PM 18.4393 -66.0020 270° West  Level Estimated
03:54PM 18.4333 -66.0000 270° West  Level FlightAware Approximate
03:55PM 18.4393 -66.0020 270° West  Level Estimated
03:56PM 18.4333 -66.0000 270° West  Level FlightAware Approximate
03:57PM 18.4393 -66.0020 270° West  Level Estimated
03:58PM 18.4333 -66.0000 270° West  Level FlightAware Approximate
03:59PM 18.4393 -66.0020 270° West  Level Estimated
04:00PM 18.4333 -66.0000 270° West  Level FlightAware Approximate
04:01PM 18.4393 -66.0020 270° West  Level Estimated
04:02PM 18.4333 -66.0000 270° West  Level FlightAware Approximate